Time;durP1;ratioP1;P1;durP2;ratioP2;P2;SDS_P1;SDS_P2;PMS_P1;PMS_P2;Temp;Humidity;BMP_temperature;BMP_pressure;BME280_temperature;BME280_humidity;BME280_pressure;Samples;Min_cycle;Max_cycle;Signal;HPM_P1;HPM_P2
2021/03/07 00:02:04;;;;;;;10.77;8.80;;;;;;;3.87;50.05;97229.28;5052257;28;20184;-57
2021/03/07 00:04:29;;;;;;;11.67;8.63;;;;;;;3.81;50.20;97227.31;5064539;28;20647;-60
2021/03/07 00:06:55;;;;;;;10.30;8.50;;;;;;;3.85;50.03;97227.81;5071347;28;20255;-60
2021/03/07 00:09:20;;;;;;;10.07;9.10;;;;;;;3.84;48.84;97221.00;5071896;28;20206;-56
2021/03/07 00:11:45;;;;;;;12.37;8.97;;;;;;;3.84;49.21;97224.38;5064579;28;20179;-60
2021/03/07 00:14:11;;;;;;;11.70;8.63;;;;;;;3.87;47.25;97229.28;5052039;28;20179;-59
2021/03/07 00:16:36;;;;;;;9.40;7.70;;;;;;;3.79;46.35;97221.47;5051978;28;20662;-60
2021/03/07 00:19:02;;;;;;;9.40;7.07;;;;;;;3.72;46.16;97223.09;5071183;28;20279;-57
2021/03/07 00:21:27;;;;;;;10.07;8.00;;;;;;;3.91;47.70;97222.75;5071937;28;20182;-58
2021/03/07 00:23:52;;;;;;;8.50;7.70;;;;;;;4.02;47.60;97219.84;5071855;28;20178;-59
2021/03/07 00:26:18;;;;;;;8.40;7.60;;;;;;;4.04;47.13;97220.50;5069215;28;20191;-57
2021/03/07 00:28:43;;;;;;;8.40;7.40;;;;;;;4.04;47.57;97219.69;5071677;28;20293;-61
2021/03/07 00:31:08;;;;;;;7.33;6.60;;;;;;;3.98;47.57;97218.56;5055805;28;20241;-60
2021/03/07 00:33:34;;;;;;;7.47;6.67;;;;;;;3.90;48.01;97222.94;5069489;28;20868;-58
2021/03/07 00:35:59;;;;;;;8.67;7.30;;;;;;;3.93;48.02;97218.22;5071400;28;20183;-59
2021/03/07 00:38:24;;;;;;;7.83;7.03;;;;;;;3.98;47.87;97215.97;5071256;28;20559;-57
2021/03/07 00:40:50;;;;;;;8.57;7.57;;;;;;;3.94;48.68;97213.84;5071717;28;20186;-58
2021/03/07 00:43:15;;;;;;;10.97;8.10;;;;;;;3.93;48.81;97205.22;5052369;28;20176;-60
2021/03/07 00:45:41;;;;;;;14.30;10.20;;;;;;;3.96;48.93;97210.13;5052793;28;20209;-59
2021/03/07 00:48:07;;;;;;;24.77;15.27;;;;;;;3.92;48.27;97205.38;5051295;28;20195;-59
2021/03/07 00:50:32;;;;;;;29.50;15.63;;;;;;;3.90;49.01;97199.53;5051469;28;20244;-60
2021/03/07 00:52:57;;;;;;;29.53;15.47;;;;;;;4.00;48.92;97198.38;5050074;28;20434;-57
2021/03/07 00:55:24;;;;;;;33.70;17.53;;;;;;;4.03;48.77;97197.25;5050766;28;20186;-61
2021/03/07 00:57:49;;;;;;;34.30;18.60;;;;;;;3.98;47.55;97189.97;5050454;28;20678;-58
2021/03/07 01:00:22;;;;;;;33.27;19.40;;;;;;;4.02;47.47;97199.03;5052335;28;20431;-61
2021/03/07 01:02:47;;;;;;;19.20;14.80;;;;;;;4.00;47.46;97193.19;5051339;28;20178;-56
2021/03/07 01:05:14;;;;;;;14.50;10.23;;;;;;;4.02;47.48;97193.06;5051312;28;20414;-60
2021/03/07 01:07:39;;;;;;;7.90;7.17;;;;;;;4.04;46.84;97183.31;5050175;28;20206;-61
2021/03/07 01:10:15;;;;;;;7.73;6.67;;;;;;;4.10;47.12;97180.84;5051203;28;20845;-59
2021/03/07 01:12:41;;;;;;;6.60;6.00;;;;;;;4.07;47.69;97178.59;5048487;28;20187;-59
2021/03/07 01:15:07;;;;;;;8.20;6.70;;;;;;;4.13;47.27;97180.50;5068340;28;20936;-60
2021/03/07 01:17:33;;;;;;;7.13;6.43;;;;;;;3.99;47.16;97183.78;5070599;28;20453;-56
2021/03/07 01:19:58;;;;;;;7.53;6.83;;;;;;;3.93;46.28;97181.03;5068139;28;20468;-59
2021/03/07 01:22:24;;;;;;;8.70;6.90;;;;;;;3.89;46.55;97180.56;5070865;28;20183;-56
2021/03/07 01:24:49;;;;;;;9.00;6.33;;;;;;;3.86;46.76;97169.69;5070821;28;20180;-60
2021/03/07 01:27:15;;;;;;;7.63;6.93;;;;;;;3.92;47.08;97172.41;5059476;28;20267;-57
2021/03/07 01:29:40;;;;;;;7.50;6.57;;;;;;;3.87;47.49;97160.88;5067817;28;20565;-60
2021/03/07 01:32:06;;;;;;;8.37;7.03;;;;;;;3.77;47.56;97173.22;5070089;28;20174;-57
2021/03/07 01:34:31;;;;;;;6.83;6.00;;;;;;;3.44;47.85;97164.66;5070567;28;20199;-57
2021/03/07 01:36:57;;;;;;;7.33;6.03;;;;;;;3.62;47.82;97156.69;5070312;28;20186;-56
2021/03/07 01:39:22;;;;;;;7.10;6.20;;;;;;;3.54;48.19;97161.88;5070510;28;20288;-60
2021/03/07 01:41:48;;;;;;;7.67;6.47;;;;;;;3.47;48.46;97158.28;5062093;28;20180;-56
2021/03/07 01:44:13;;;;;;;7.23;6.37;;;;;;;3.37;47.80;97149.88;5049986;28;20175;-60
2021/03/07 01:46:39;;;;;;;7.83;6.50;;;;;;;3.43;48.33;97142.22;5050153;28;20177;-60
2021/03/07 01:49:04;;;;;;;7.13;6.47;;;;;;;3.39;48.23;97146.13;5050350;28;20196;-57
2021/03/07 01:51:30;;;;;;;7.93;7.13;;;;;;;3.39;47.01;97140.91;5050333;28;20180;-60
2021/03/07 01:53:55;;;;;;;8.23;6.73;;;;;;;3.16;47.45;97147.72;5050382;28;20171;-57
2021/03/07 01:56:22;;;;;;;7.43;6.73;;;;;;;3.08;47.47;97137.31;5052215;28;20171;-59
2021/03/07 01:58:49;;;;;;;9.40;7.07;;;;;;;3.03;47.95;97132.63;5060841;28;20239;-57
2021/03/07 02:01:14;;;;;;;7.53;5.77;;;;;;;3.19;48.19;97121.44;5052824;28;20455;-61
2021/03/07 02:03:50;;;;;;;8.27;6.73;;;;;;;3.20;48.78;97123.06;5070107;28;21003;-59
2021/03/07 02:06:16;;;;;;;6.50;5.90;;;;;;;3.21;48.86;97121.28;5069576;28;20214;-59
2021/03/07 02:08:41;;;;;;;10.03;6.80;;;;;;;3.08;48.68;97114.78;5069485;28;20434;-60
2021/03/07 02:11:07;;;;;;;7.90;6.90;;;;;;;3.27;48.28;97105.06;5060063;28;20240;-56
2021/03/07 02:13:36;;;;;;;8.13;6.50;;;;;;;3.34;48.17;97114.63;5050017;28;20164;-61
2021/03/07 02:16:16;;;;;;;9.60;7.53;;;;;;;3.22;47.41;97115.13;5049849;28;20171;-57
2021/03/07 02:18:43;;;;;;;9.10;6.53;;;;;;;3.17;47.78;97103.44;5049372;28;20429;-61
2021/03/07 02:21:28;;;;;;;9.10;7.30;;;;;;;3.29;48.37;97101.34;5051797;28;20520;-57
2021/03/07 02:24:06;;;;;;;8.57;7.40;;;;;;;3.28;47.98;97096.31;5065459;28;20425;-59
2021/03/07 02:26:33;;;;;;;8.50;6.60;;;;;;;3.33;48.11;97094.84;5043628;28;20441;-61
2021/03/07 02:28:59;;;;;;;8.20;6.73;;;;;;;3.46;47.99;97094.34;5053888;28;20512;-54
2021/03/07 02:31:27;;;;;;;9.23;7.03;;;;;;;3.38;49.39;97091.75;5061104;28;20418;-56
2021/03/07 02:34:16;;;;;;;7.90;6.30;;;;;;;3.17;48.68;97084.44;5053301;28;20416;-56
2021/03/07 02:36:45;;;;;;;8.57;6.60;;;;;;;3.40;49.05;97082.00;5053917;28;20433;-56
2021/03/07 02:39:12;;;;;;;8.13;6.87;;;;;;;3.31;49.01;97085.59;5053283;28;20824;-56
2021/03/07 02:41:40;;;;;;;10.33;6.70;;;;;;;3.38;48.74;97073.56;5053107;28;20401;-59
2021/03/07 02:44:08;;;;;;;7.60;6.50;;;;;;;3.38;48.85;97066.59;5053268;28;20471;-56
2021/03/07 02:46:35;;;;;;;7.13;6.23;;;;;;;3.21;47.91;97070.16;5052916;28;20772;-59
2021/03/07 02:49:07;;;;;;;8.17;6.40;;;;;;;2.96;47.82;97068.53;5053144;28;20422;-59
2021/03/07 02:51:34;;;;;;;7.87;7.10;;;;;;;2.84;48.76;97062.03;5053565;28;20454;-57
2021/03/07 02:54:06;;;;;;;10.17;6.67;;;;;;;2.97;48.63;97052.00;5053167;28;20467;-56
2021/03/07 02:56:35;;;;;;;7.63;6.80;;;;;;;2.90;48.66;97048.41;5052729;28;20766;-59
2021/03/07 02:59:13;;;;;;;6.70;6.00;;;;;;;2.83;48.55;97045.66;5053003;28;20426;-59
2021/03/07 03:01:40;;;;;;;8.67;6.73;;;;;;;2.79;48.78;97048.75;5055583;28;20434;-56
2021/03/07 03:04:07;;;;;;;7.73;6.90;;;;;;;2.80;49.20;97051.19;5054987;28;20793;-59
2021/03/07 03:06:36;;;;;;;8.80;6.50;;;;;;;2.89;49.38;97046.78;5072754;28;20796;-55
2021/03/07 03:09:06;;;;;;;5.83;5.33;;;;;;;2.91;49.96;97047.44;5072825;28;20472;-59
2021/03/07 03:11:35;;;;;;;7.30;6.40;;;;;;;3.01;49.43;97046.31;5072980;28;20417;-59
2021/03/07 03:14:02;;;;;;;7.60;6.60;;;;;;;2.98;49.46;97048.44;5072998;28;20456;-59
2021/03/07 03:16:29;;;;;;;8.40;7.23;;;;;;;3.04;49.97;97048.56;5057615;28;20427;-59
2021/03/07 03:18:58;;;;;;;7.27;6.30;;;;;;;2.99;49.85;97040.47;5052627;28;20480;-58
2021/03/07 03:21:24;;;;;;;6.97;6.27;;;;;;;3.10;49.26;97044.53;5053033;28;20497;-56
2021/03/07 03:23:49;;;;;;;8.80;6.50;;;;;;;3.19;49.54;97034.97;5052263;28;20460;-56
2021/03/07 03:26:18;;;;;;;7.60;6.90;;;;;;;3.22;49.73;97038.06;5052439;28;20435;-59
2021/03/07 03:28:44;;;;;;;6.93;6.30;;;;;;;3.07;49.93;97031.88;5052738;28;20201;-59
2021/03/07 03:31:09;;;;;;;7.93;6.80;;;;;;;3.01;50.24;97035.94;5052793;28;20457;-56
2021/03/07 03:33:34;;;;;;;6.97;6.27;;;;;;;2.95;50.53;97028.00;5053452;28;20183;-57
2021/03/07 03:36:00;;;;;;;7.90;7.10;;;;;;;2.97;50.34;97029.44;5053285;28;20176;-61
2021/03/07 03:38:39;;;;;;;7.20;6.50;;;;;;;2.86;51.22;97019.38;5056329;28;20248;-59
2021/03/07 03:41:08;;;;;;;8.20;6.53;;;;;;;2.98;51.41;97027.66;5056443;28;20561;-59
2021/03/07 03:43:35;;;;;;;8.10;7.30;;;;;;;2.93;51.27;97025.56;5056288;28;20884;-56
2021/03/07 03:46:02;;;;;;;7.53;6.73;;;;;;;3.04;51.09;97030.41;5055943;28;20405;-56
2021/03/07 03:48:34;;;;;;;8.17;6.47;;;;;;;3.00;51.36;97026.53;5073344;28;20441;-56
2021/03/07 03:51:02;;;;;;;7.20;6.43;;;;;;;2.97;51.64;97023.47;5061432;28;20461;-56
2021/03/07 03:53:28;;;;;;;8.77;6.57;;;;;;;2.91;51.67;97017.13;5056115;28;20830;-56
2021/03/07 03:55:54;;;;;;;9.73;8.73;;;;;;;2.80;51.45;97014.03;5055704;28;20425;-61
2021/03/07 03:58:22;;;;;;;9.97;7.17;;;;;;;2.75;51.60;97013.72;5055828;28;20429;-59
2021/03/07 04:00:49;;;;;;;7.23;6.03;;;;;;;2.72;52.16;97014.84;5055953;28;20406;-59
2021/03/07 04:03:16;;;;;;;8.03;7.03;;;;;;;2.59;52.64;97011.91;5056200;28;20438;-60
2021/03/07 04:05:49;;;;;;;9.27;7.10;;;;;;;2.59;53.01;97011.09;5055943;28;20414;-56
2021/03/07 04:08:18;;;;;;;8.70;7.50;;;;;;;2.69;52.20;97009.16;5054760;28;20453;-56
2021/03/07 04:10:44;;;;;;;9.77;7.43;;;;;;;2.51;52.53;97011.06;5073826;28;20453;-56
2021/03/07 04:13:14;;;;;;;8.27;6.83;;;;;;;2.48;52.55;97004.41;5075850;28;20443;-59
2021/03/07 04:15:40;;;;;;;7.33;6.60;;;;;;;2.41;52.11;97010.44;5061511;28;20422;-57
2021/03/07 04:18:06;;;;;;;7.90;6.40;;;;;;;2.26;52.61;97014.59;5055275;28;20434;-56
2021/03/07 04:20:32;;;;;;;9.00;7.30;;;;;;;2.42;53.03;97012.03;5055690;28;20807;-60
2021/03/07 04:22:58;;;;;;;8.03;7.10;;;;;;;2.57;52.55;97018.22;5055721;28;20414;-59
2021/03/07 04:25:23;;;;;;;6.97;6.10;;;;;;;2.59;52.75;97011.91;5054160;28;20449;-56
2021/03/07 04:27:50;;;;;;;9.47;7.23;;;;;;;2.36;52.39;97010.88;5054971;28;20187;-59
2021/03/07 04:30:16;;;;;;;8.27;6.70;;;;;;;2.13;52.62;97011.63;5056058;28;20209;-57
2021/03/07 04:32:42;;;;;;;8.23;6.90;;;;;;;2.06;53.77;97003.69;5064974;28;20421;-57
2021/03/07 04:35:09;;;;;;;7.00;6.30;;;;;;;1.87;54.24;97012.50;5063512;28;20428;-56
2021/03/07 04:37:35;;;;;;;8.17;6.67;;;;;;;1.87;54.06;97006.50;5054804;28;20483;-60
2021/03/07 04:40:00;;;;;;;7.73;6.77;;;;;;;1.95;53.49;97007.38;5055492;28;20401;-56
2021/03/07 04:42:26;;;;;;;8.27;7.30;;;;;;;2.06;53.57;97006.28;5055256;28;20416;-59
2021/03/07 04:44:52;;;;;;;9.43;7.60;;;;;;;2.17;53.81;97000.81;5055120;28;20622;-56
2021/03/07 04:47:17;;;;;;;6.40;5.50;;;;;;;2.04;53.37;97003.03;5055546;28;20422;-59
2021/03/07 04:49:42;;;;;;;8.73;6.43;;;;;;;1.83;53.88;97000.03;5057470;28;20229;-56
2021/03/07 04:52:08;;;;;;;6.33;5.70;;;;;;;1.97;53.28;97002.03;5055140;28;20167;-55
2021/03/07 04:54:33;;;;;;;7.40;6.70;;;;;;;2.17;52.83;96999.97;5054766;28;20265;-60
2021/03/07 04:57:03;;;;;;;8.57;6.43;;;;;;;2.23;52.92;96989.00;5054471;28;20176;-59
2021/03/07 04:59:29;;;;;;;7.43;6.40;;;;;;;2.43;52.74;96992.94;5054830;28;20187;-59
2021/03/07 05:01:55;;;;;;;7.00;6.10;;;;;;;2.26;52.65;96979.13;5072713;28;20413;-56
2021/03/07 05:04:20;;;;;;;7.27;5.87;;;;;;;2.24;53.30;96977.66;5059618;28;20422;-56
2021/03/07 05:06:45;;;;;;;7.47;6.00;;;;;;;2.24;53.36;96991.44;5054400;28;20631;-56
2021/03/07 05:09:11;;;;;;;11.33;5.90;;;;;;;2.17;53.25;96979.25;5054117;28;20247;-60
2021/03/07 05:11:37;;;;;;;6.10;5.60;;;;;;;2.36;53.36;96979.78;5054555;28;20234;-56
2021/03/07 05:14:03;;;;;;;7.97;6.00;;;;;;;2.40;52.88;96975.09;5056974;28;20182;-60
2021/03/07 05:16:29;;;;;;;6.23;5.63;;;;;;;2.52;53.14;96977.22;5073906;28;20926;-57
2021/03/07 05:18:55;;;;;;;6.93;6.23;;;;;;;2.66;52.95;96975.78;5054273;28;20441;-56
2021/03/07 05:21:21;;;;;;;7.40;6.57;;;;;;;2.75;52.36;96978.22;5054576;28;20409;-61
2021/03/07 05:23:47;;;;;;;7.20;6.30;;;;;;;2.81;52.72;96971.53;5054516;28;20572;-57
2021/03/07 05:26:12;;;;;;;6.90;6.30;;;;;;;2.78;53.16;96967.50;5053998;28;20884;-60
2021/03/07 05:28:38;;;;;;;9.13;7.33;;;;;;;2.69;52.80;96965.88;5052931;28;20242;-59
2021/03/07 05:31:03;;;;;;;9.87;7.50;;;;;;;2.82;52.68;96949.84;5059925;28;20565;-56
2021/03/07 05:33:29;;;;;;;9.13;7.30;;;;;;;2.75;52.72;96954.06;5055399;28;20687;-59
2021/03/07 05:35:55;;;;;;;8.30;7.33;;;;;;;2.90;53.08;96949.81;5054034;28;20172;-56
2021/03/07 05:38:21;;;;;;;8.27;7.17;;;;;;;2.92;53.05;96950.47;5053930;28;20437;-59
2021/03/07 05:40:46;;;;;;;7.70;6.83;;;;;;;2.75;53.25;96954.06;5053823;28;20171;-60
2021/03/07 05:43:12;;;;;;;9.80;7.60;;;;;;;2.83;53.72;96960.03;5053957;28;20915;-56
2021/03/07 05:45:37;;;;;;;9.57;7.40;;;;;;;2.92;53.34;96955.66;5059927;28;20245;-60
2021/03/07 05:48:03;;;;;;;8.30;7.10;;;;;;;2.90;53.34;96955.81;5056222;28;20207;-56
2021/03/07 05:50:29;;;;;;;11.43;7.47;;;;;;;2.97;53.66;96961.97;5054094;28;20248;-56
2021/03/07 05:52:57;;;;;;;10.13;7.07;;;;;;;2.80;54.42;96955.19;5053518;28;20209;-56
2021/03/07 05:55:24;;;;;;;9.93;8.10;;;;;;;2.99;53.46;96954.03;5053747;28;20407;-56
2021/03/07 05:57:50;;;;;;;9.00;6.83;;;;;;;2.89;53.25;96950.78;5052926;28;20465;-59
2021/03/07 06:00:18;;;;;;;11.37;8.17;;;;;;;2.74;53.23;96955.00;5067483;28;20464;-56
2021/03/07 06:02:43;;;;;;;9.13;6.83;;;;;;;2.89;53.45;96940.41;5073616;28;20462;-60
2021/03/07 06:05:13;;;;;;;10.83;7.83;;;;;;;2.87;54.07;96948.38;5073799;28;20420;-56
2021/03/07 06:07:40;;;;;;;11.10;8.07;;;;;;;2.81;54.63;96932.63;5057393;28;20222;-56
2021/03/07 06:10:12;;;;;;;9.87;7.70;;;;;;;2.84;54.21;96933.16;5053756;28;20552;-57
2021/03/07 06:12:38;;;;;;;8.00;6.70;;;;;;;2.84;54.24;96937.50;5053262;28;20425;-60
2021/03/07 06:15:05;;;;;;;7.97;7.10;;;;;;;2.70;53.86;96935.56;5069792;28;20428;-59
2021/03/07 06:17:44;;;;;;;7.53;6.73;;;;;;;2.79;54.19;96937.19;5073143;28;20914;-59
2021/03/07 06:20:15;;;;;;;8.50;7.10;;;;;;;2.72;54.21;96928.41;5073461;28;20416;-60
2021/03/07 06:23:02;;;;;;;7.67;6.87;;;;;;;2.65;54.73;96943.00;5073432;28;20815;-59
2021/03/07 06:25:29;;;;;;;9.90;7.07;;;;;;;2.64;54.11;96933.63;5073619;28;20409;-56
2021/03/07 06:27:55;;;;;;;8.17;7.10;;;;;;;2.85;54.81;96931.34;5053767;28;20445;-56
2021/03/07 06:30:24;;;;;;;8.93;6.30;;;;;;;2.67;54.76;96931.50;5053358;28;20537;-59
2021/03/07 06:32:54;;;;;;;8.00;7.20;;;;;;;2.62;55.37;96940.75;5053255;28;20489;-56
2021/03/07 06:35:31;;;;;;;8.87;7.87;;;;;;;2.79;54.98;96930.19;5053105;28;20421;-56
2021/03/07 06:38:06;;;;;;;8.60;7.30;;;;;;;2.65;55.39;96925.69;5052845;28;20449;-56
2021/03/07 06:40:35;;;;;;;6.73;5.93;;;;;;;2.77;55.31;96923.56;5053319;28;20394;-59
2021/03/07 06:43:06;;;;;;;9.50;7.03;;;;;;;2.68;55.54;96927.16;5053259;28;20426;-60
2021/03/07 06:45:42;;;;;;;7.77;6.97;;;;;;;2.80;55.29;96923.25;5052812;28;20429;-56
2021/03/07 06:48:09;;;;;;;11.03;8.50;;;;;;;2.86;55.37;96925.19;5053697;28;20437;-56
2021/03/07 06:50:36;;;;;;;7.43;6.73;;;;;;;2.92;55.00;96924.50;5052951;28;20519;-60
2021/03/07 06:53:02;;;;;;;10.67;7.40;;;;;;;2.92;55.37;96930.53;5053266;28;20436;-61
2021/03/07 06:55:40;;;;;;;9.60;7.90;;;;;;;3.00;54.97;96929.72;5056275;28;20517;-57
2021/03/07 06:58:16;;;;;;;9.73;7.90;;;;;;;3.06;55.31;96922.06;5072707;28;20275;-59
2021/03/07 07:00:42;;;;;;;8.30;7.20;;;;;;;3.12;55.31;96929.19;5073078;28;20802;-56
2021/03/07 07:03:12;;;;;;;8.30;7.50;;;;;;;3.23;55.26;96930.63;5073253;28;20409;-56
2021/03/07 07:05:42;;;;;;;8.57;7.67;;;;;;;3.22;55.53;96926.44;5054535;28;20546;-60
2021/03/07 07:08:11;;;;;;;10.23;8.83;;;;;;;2.96;56.19;96931.00;5051207;28;20854;-56
2021/03/07 07:10:54;;;;;;;9.83;8.90;;;;;;;3.12;55.37;96928.38;5055131;28;21053;-60
2021/03/07 07:13:20;;;;;;;10.43;8.60;;;;;;;3.27;54.59;96926.72;5056870;28;20461;-59
2021/03/07 07:15:59;;;;;;;11.70;8.50;;;;;;;3.23;54.13;96924.63;5056909;28;20760;-56
2021/03/07 07:18:26;;;;;;;8.47;7.03;;;;;;;3.07;54.16;96917.69;5056685;28;20191;-57
2021/03/07 07:20:53;;;;;;;10.13;7.10;;;;;;;3.11;54.06;96918.97;5056389;28;20405;-56
2021/03/07 07:23:19;;;;;;;9.00;7.90;;;;;;;3.31;54.32;96917.63;5056745;28;20415;-60
2021/03/07 07:25:45;;;;;;;10.13;8.10;;;;;;;3.39;54.18;96916.81;5076380;28;20427;-59
2021/03/07 07:28:10;;;;;;;10.60;8.37;;;;;;;3.48;53.18;96916.59;5076107;28;20434;-59
2021/03/07 07:30:36;;;;;;;9.97;7.90;;;;;;;3.54;53.41;96913.34;5076584;28;20192;-56
2021/03/07 07:33:04;;;;;;;8.73;7.50;;;;;;;3.59;53.58;96912.81;5076157;28;20188;-56
2021/03/07 07:35:30;;;;;;;8.40;7.67;;;;;;;3.68;53.65;96912.63;5059958;28;20770;-56
2021/03/07 07:38:01;;;;;;;10.93;8.53;;;;;;;3.83;53.54;96913.53;5055500;28;20443;-56
2021/03/07 07:40:36;;;;;;;9.70;8.50;;;;;;;3.94;54.07;96913.16;5055198;28;20408;-56
2021/03/07 07:43:02;;;;;;;10.00;8.87;;;;;;;3.90;53.37;96914.47;5056232;28;20409;-59
2021/03/07 07:45:28;;;;;;;9.83;8.83;;;;;;;4.11;53.07;96909.47;5056230;28;20427;-58
2021/03/07 07:47:57;;;;;;;8.77;7.97;;;;;;;4.25;53.60;96915.72;5055737;28;20281;-56
2021/03/07 07:53:27;;;;;;;10.30;8.77;;;;;;;4.39;52.66;96921.97;5056317;28;20403;-56
2021/03/07 07:55:56;;;;;;;10.93;9.83;;;;;;;4.58;52.67;96918.91;5055202;28;20467;-60
2021/03/07 07:58:37;;;;;;;10.40;9.30;;;;;;;4.76;52.50;96911.63;5055960;28;21005;-56
2021/03/07 08:01:11;;;;;;;9.97;8.57;;;;;;;4.82;52.13;96911.72;5055912;28;20417;-56
2021/03/07 08:03:40;;;;;;;10.20;9.20;;;;;;;4.96;52.36;96915.34;5055844;28;20929;-56
2021/03/07 08:06:07;;;;;;;9.87;8.83;;;;;;;4.99;52.37;96909.78;5056541;28;20749;-60
2021/03/07 08:08:51;;;;;;;10.80;8.70;;;;;;;5.07;52.62;96909.72;5055367;28;20845;-57
2021/03/07 08:11:19;;;;;;;11.27;9.33;;;;;;;5.16;52.99;96904.22;5055412;28;20488;-59
2021/03/07 08:13:52;;;;;;;12.10;9.70;;;;;;;5.22;52.12;96902.69;5055822;28;20436;-59
2021/03/07 08:16:36;;;;;;;11.73;8.90;;;;;;;5.21;52.76;96895.88;5054800;28;20772;-61
2021/03/07 08:19:01;;;;;;;10.83;9.70;;;;;;;5.19;52.12;96901.28;5067196;28;20470;-61
2021/03/07 08:21:27;;;;;;;10.07;9.07;;;;;;;5.37;51.46;96898.31;5075317;28;20443;-55
2021/03/07 08:23:57;;;;;;;12.17;9.73;;;;;;;5.45;51.37;96900.03;5074507;28;20226;-56
2021/03/07 08:26:43;;;;;;;13.03;9.53;;;;;;;5.06;52.45;96900.25;5074145;28;20708;-56
2021/03/07 08:29:36;;;;;;;11.07;9.80;;;;;;;5.50;52.52;96900.28;5074326;28;20446;-60
2021/03/07 08:32:37;;;;;;;8.90;8.00;;;;;;;5.70;51.91;96894.34;5074245;28;20404;-60
2021/03/07 08:35:11;;;;;;;9.73;8.73;;;;;;;5.88;50.66;96892.19;5051035;28;20526;-55
2021/03/07 08:37:37;;;;;;;9.50;8.47;;;;;;;5.78;50.11;96894.22;5055006;28;20439;-60
2021/03/07 08:40:28;;;;;;;12.73;10.23;;;;;;;5.84;50.45;96884.91;5055552;28;20766;-55
2021/03/07 08:43:18;;;;;;;10.63;8.80;;;;;;;6.13;51.27;96887.44;5055130;28;20174;-59
2021/03/07 08:46:03;;;;;;;10.60;9.50;;;;;;;6.28;49.04;96876.94;5053857;28;20819;-55
2021/03/07 08:48:29;;;;;;;9.50;8.27;;;;;;;6.21;49.23;96884.72;5055663;28;20432;-59
2021/03/07 08:50:55;;;;;;;10.23;8.73;;;;;;;6.23;50.23;96878.31;5055151;28;20457;-55
2021/03/07 08:53:29;;;;;;;9.97;8.97;;;;;;;6.41;48.96;96877.91;5057659;28;20428;-55
2021/03/07 08:55:55;;;;;;;11.07;9.97;;;;;;;6.58;49.58;96871.41;5074869;28;20495;-61
2021/03/07 08:58:21;;;;;;;10.23;9.23;;;;;;;6.33;48.41;96870.19;5074731;28;20515;-59
2021/03/07 09:00:50;;;;;;;10.43;9.40;;;;;;;6.24;49.72;96864.28;5073735;28;20178;-59
2021/03/07 09:03:16;;;;;;;10.43;9.20;;;;;;;6.50;48.51;96871.56;5059358;28;20421;-59
2021/03/07 09:05:42;;;;;;;11.50;10.10;;;;;;;6.41;50.58;96870.06;5055855;28;20402;-56
2021/03/07 09:08:08;;;;;;;11.67;10.53;;;;;;;6.20;50.37;96864.81;5053788;28;20962;-56
2021/03/07 09:10:39;;;;;;;11.37;10.27;;;;;;;6.72;48.95;96865.28;5053378;28;20195;-55
2021/03/07 09:13:23;;;;;;;10.17;9.20;;;;;;;7.03;48.60;96862.31;5054746;28;20171;-59
2021/03/07 09:15:51;;;;;;;10.60;9.57;;;;;;;7.19;49.10;96862.81;5055675;28;20803;-55
2021/03/07 09:18:18;;;;;;;10.00;8.97;;;;;;;7.50;48.76;96859.78;5054320;28;20432;-59
2021/03/07 09:20:50;;;;;;;11.37;10.10;;;;;;;7.27;48.90;96854.84;5055425;28;20476;-59
2021/03/07 09:23:38;;;;;;;9.87;8.80;;;;;;;7.11;49.95;96862.16;5054286;28;20423;-55
2021/03/07 09:26:22;;;;;;;11.33;10.13;;;;;;;7.60;48.51;96852.38;5054227;28;20481;-60
2021/03/07 09:28:49;;;;;;;12.27;10.43;;;;;;;7.78;48.85;96857.06;5054330;28;20430;-55
2021/03/07 09:31:20;;;;;;;13.50;10.60;;;;;;;7.94;48.72;96849.69;5054371;28;20491;-59
2021/03/07 09:33:57;;;;;;;11.83;9.83;;;;;;;8.09;48.32;96847.72;5070567;28;20521;-55
2021/03/07 09:36:24;;;;;;;10.53;9.50;;;;;;;7.89;47.89;96846.06;5073463;28;20421;-55
2021/03/07 09:38:56;;;;;;;11.03;9.93;;;;;;;8.06;47.51;96845.50;5055611;28;20448;-55
2021/03/07 09:41:37;;;;;;;10.57;9.47;;;;;;;7.98;48.23;96837.84;5054283;28;20401;-59
2021/03/07 09:44:06;;;;;;;11.43;10.23;;;;;;;8.26;48.63;96828.06;5054146;28;20861;-59
2021/03/07 09:46:32;;;;;;;12.00;10.60;;;;;;;7.60;49.35;96836.69;5053651;28;20419;-59
2021/03/07 09:49:04;;;;;;;12.67;10.50;;;;;;;8.30;48.33;96829.28;5053861;28;20961;-59
2021/03/07 09:51:35;;;;;;;12.67;11.37;;;;;;;8.53;47.96;96831.53;5053849;28;20426;-56
2021/03/07 09:54:00;;;;;;;11.80;10.40;;;;;;;8.90;47.87;96823.03;5053853;28;20803;-59
2021/03/07 09:56:34;;;;;;;13.83;11.23;;;;;;;9.07;46.65;96821.59;5053353;28;20410;-56
2021/03/07 09:59:13;;;;;;;12.57;11.30;;;;;;;9.22;46.52;96818.75;5053846;28;20285;-56
2021/03/07 10:01:45;;;;;;;12.60;11.00;;;;;;;9.39;46.44;96825.13;5055020;28;20922;-55
2021/03/07 10:04:32;;;;;;;11.50;10.30;;;;;;;9.42;45.70;96822.09;5058558;28;20510;-59
2021/03/07 10:06:59;;;;;;;12.07;10.90;;;;;;;9.61;46.04;96816.00;5033367;28;20506;-55
2021/03/07 10:09:25;;;;;;;13.13;11.73;;;;;;;9.78;46.38;96808.44;5033687;28;20585;-55
2021/03/07 10:12:08;;;;;;;12.23;11.03;;;;;;;9.63;46.97;96807.91;5038634;28;20514;-57
2021/03/07 10:14:34;;;;;;;12.20;11.00;;;;;;;9.71;47.15;96805.84;5054088;28;20190;-57
2021/03/07 10:17:00;;;;;;;12.30;11.00;;;;;;;9.98;47.21;96803.91;5072757;28;20427;-58
2021/03/07 10:19:36;;;;;;;13.50;11.60;;;;;;;10.01;47.70;96793.78;5073573;28;20538;-59
2021/03/07 10:22:05;;;;;;;12.30;11.00;;;;;;;9.24;47.53;96799.16;5073537;28;20409;-59
2021/03/07 10:24:32;;;;;;;12.47;11.00;;;;;;;9.69;44.98;96793.97;5073401;28;20410;-58
2021/03/07 10:27:04;;;;;;;12.53;10.67;;;;;;;9.26;45.92;96797.16;5064610;28;20430;-58
2021/03/07 10:29:32;;;;;;;12.53;11.23;;;;;;;9.49;45.57;96795.88;5065406;28;20463;-58
2021/03/07 10:32:07;;;;;;;13.00;11.70;;;;;;;9.72;45.87;96796.16;5073301;28;20782;-59
2021/03/07 10:34:44;;;;;;;11.20;10.23;;;;;;;10.28;45.40;96791.81;5070147;28;20508;-58
2021/03/07 10:37:34;;;;;;;12.57;11.27;;;;;;;10.52;44.36;96788.41;5073067;28;20410;-58
2021/03/07 10:39:59;;;;;;;13.27;11.80;;;;;;;10.65;43.27;96787.50;5073278;28;20450;-58
2021/03/07 10:42:32;;;;;;;14.03;12.70;;;;;;;10.63;43.90;96792.97;5058756;28;20460;-58
2021/03/07 10:45:22;;;;;;;11.30;10.20;;;;;;;9.79;44.44;96797.75;5055810;28;20649;-59
2021/03/07 10:48:08;;;;;;;11.97;10.67;;;;;;;9.92;44.22;96791.63;5056880;28;20425;-58
2021/03/07 10:50:40;;;;;;;11.67;10.50;;;;;;;10.48;43.54;96789.84;5057330;28;20441;-58
2021/03/07 10:53:06;;;;;;;11.43;10.33;;;;;;;11.03;42.87;96788.16;5058179;28;20445;-58
2021/03/07 10:55:32;;;;;;;11.83;10.50;;;;;;;11.41;42.60;96781.66;5057339;28;20887;-59
2021/03/07 10:57:57;;;;;;;12.37;11.10;;;;;;;11.63;41.35;96781.22;5066216;28;20210;-59
2021/03/07 11:00:23;;;;;;;11.60;10.50;;;;;;;11.51;41.14;96778.50;5075166;28;20185;-60
2021/03/07 11:02:49;;;;;;;12.03;10.87;;;;;;;11.79;40.69;96784.06;5077289;28;20190;-60
2021/03/07 11:05:16;;;;;;;12.57;11.37;;;;;;;11.91;39.63;96781.47;5077319;28;20520;-60
2021/03/07 11:07:42;;;;;;;11.67;10.47;;;;;;;11.72;39.26;96780.69;5076477;28;20197;-61
2021/03/07 11:10:10;;;;;;;11.77;10.50;;;;;;;11.91;40.06;96784.09;5074992;28;21018;-61
2021/03/07 11:12:36;;;;;;;11.63;10.43;;;;;;;12.23;40.05;96782.84;5052453;28;20483;-61
2021/03/07 11:15:04;;;;;;;12.13;10.90;;;;;;;12.37;38.56;96774.50;5066729;28;20915;-61
2021/03/07 11:17:30;;;;;;;12.47;11.27;;;;;;;12.49;39.25;96776.34;5072891;28;20844;-61
2021/03/07 11:19:55;;;;;;;11.43;10.33;;;;;;;12.49;38.39;96773.72;5073308;28;20447;-60
2021/03/07 11:22:20;;;;;;;11.13;10.10;;;;;;;12.58;38.04;96772.38;5073133;28;20182;-61
2021/03/07 11:24:47;;;;;;;10.77;9.83;;;;;;;12.44;37.95;96779.69;5069444;28;20174;-60
2021/03/07 11:27:12;;;;;;;13.50;11.10;;;;;;;12.28;38.78;96780.34;5052621;28;20197;-61
2021/03/07 11:29:38;;;;;;;11.27;10.27;;;;;;;12.68;38.80;96770.75;5054202;28;21243;-61
2021/03/07 11:32:03;;;;;;;11.93;10.83;;;;;;;12.11;38.21;96771.47;5072331;28;20625;-61
2021/03/07 11:34:29;;;;;;;11.83;10.73;;;;;;;12.32;38.26;96773.56;5072878;28;20284;-61
2021/03/07 11:36:54;;;;;;;12.10;10.87;;;;;;;12.23;37.91;96773.09;5072091;28;20253;-61
2021/03/07 11:39:20;;;;;;;11.10;10.00;;;;;;;12.57;38.07;96752.31;5071180;28;20241;-60
2021/03/07 11:41:45;;;;;;;11.70;10.57;;;;;;;12.58;37.95;96761.81;5060340;28;20183;-61
2021/03/07 11:44:11;;;;;;;11.90;10.80;;;;;;;12.73;36.47;96757.72;5051439;28;20179;-59
2021/03/07 11:46:36;;;;;;;12.13;11.13;;;;;;;12.71;36.39;96751.88;5055049;28;20222;-63